Flight Track Log - Related Links

Times and Time Zones

All times are in EDT time to prevent confusion due to time zone crossing. See the KAP29 flight status page for this flight to view local times or setup timezone preferences in your user account.

Time Position Orientation Groundspeed Altitude Reporting Facility
EDT Latitude Longitude Course Direction KTS MPH feet Rate Location/Type
Mon 11:54:24 AM 44.2214 -74.1522 118° Southeast 148 170 7,200  Level Boston Center
Mon 11:55:24 AM 44.2056 -74.1111 118° Southeast 126 145 8,100 864 Climbing Boston Center
Mon 11:56:22 AM 44.1936 -74.0558 107° East 121 139 8,900 814 Climbing Boston Center
Mon 11:57:22 AM 44.1797 -74.0092 113° Southeast 137 158 9,700 645 Climbing Boston Center
Mon 11:58:23 AM 44.1700 -73.9597 105° East 137 158 10,200 492 Climbing Boston Center
Mon 11:59:24 AM 44.1603 -73.9131 106° East 132 152 10,700 397 Climbing Boston Center
Mon 12:00:24 PM 44.1422 -73.8633 117° Southeast 132 152 11,000 153 Climbing Boston Center
Mon 12:01:22 PM 44.1197 -73.8108 121° Southeast 148 170 11,000  Level Boston Center
Mon 12:02:22 PM 44.0975 -73.7525 118° Southeast 161 185 11,000  Level Boston Center
Mon 12:03:23 PM 44.0753 -73.6914 117° Southeast 167 192 11,000  Level Boston Center
Mon 12:04:35 PM 44.0508 -73.6331 120° Southeast 172 198 11,000  Level Boston Center
Mon 12:05:35 PM 44.0206 -73.5517 117° Southeast 177 204 11,000  Level Boston Center
Mon 12:06:48 PM 43.9919 -73.4789 119° Southeast 177 204 11,000  Level Boston Center
Mon 12:07:49 PM 43.9675 -73.4181 119° Southeast 182 209 11,000  Level Boston Center
Mon 12:08:58 PM 43.9431 -73.3542 118° Southeast 174 200 11,000  Level Boston Center
Mon 12:09:58 PM 43.9206 -73.2961 118° Southeast 169 194 11,000  Level Boston Center
Mon 12:10:59 PM 43.8981 -73.2439 121° Southeast 163 188 11,000  Level Boston Center
Mon 12:11:59 PM 43.8733 -73.1803 118° Southeast 163 188 11,000  Level Boston Center
Mon 12:13:00 PM 43.8508 -73.1253 120° Southeast 163 188 11,000  Level Boston Center
Mon 12:14:00 PM 43.8283 -73.0703 120° Southeast 163 188 11,000  Level Boston Center
Mon 12:15:01 PM 43.8078 -73.0125 116° Southeast 163 188 11,000  Level Boston Center
Mon 12:15:58 PM 43.7933 -72.9519 108° East 163 188 11,000  Level Boston Center
Mon 12:16:58 PM 43.7728 -72.8944 116° Southeast 163 188 11,000  Level Boston Center
Mon 12:17:59 PM 43.7481 -72.8394 122° Southeast 163 188 11,000  Level Boston Center
Mon 12:18:59 PM 43.7233 -72.7847 122° Southeast 163 188 11,000  Level Boston Center
Mon 12:20:00 PM 43.7047 -72.7331 116° Southeast 163 188 11,000  Level Boston Center
Mon 12:21:00 PM 43.6861 -72.6725 113° Southeast 168 193 11,000 51 Level Boston Center
Mon 12:21:58 PM 43.6756 -72.6153 104° East 168 193 11,100 50 Climbing Boston Center
Mon 12:22:59 PM 43.6611 -72.5519 107° East 168 193 11,100  Level Boston Center
Mon 12:23:59 PM 43.6467 -72.4861 107° East 168 193 11,100  Level Boston Center
Mon 12:25:00 PM 43.6300 -72.4200 109° East 173 199 11,100  Level Boston Center
Mon 12:26:00 PM 43.6111 -72.3542 112° Southeast 178 205 11,100  Level Boston Center
Mon 12:27:00 PM 43.5883 -72.2939 118° Southeast 178 205 11,100  Level Boston Center
Mon 12:27:58 PM 43.5486 -72.2511 142° Southeast 168 193 11,100  Level Boston Center
Mon 12:28:59 PM 43.5131 -72.2111 141° Southeast 163 188 11,100  Level Boston Center
Mon 12:29:59 PM 43.4858 -72.1597 126° Southeast 163 188 11,100  Level Boston Center
Mon 12:30:58 PM 43.4628 -72.1025 119° Southeast 163 188 11,100  Level Boston Center
Mon 12:31:58 PM 43.4481 -72.0425 109° East 170 196 11,100  Level Boston Center
Mon 12:32:59 PM 43.4372 -71.9769 103° East 170 196 11,100  Level Boston Center
Mon 12:34:00 PM 43.4122 -71.9400 133° Southeast 175 201 11,100  Level Boston Center
Mon 12:34:58 PM 43.3622 -71.9461 185° South 131 151 11,100 -51 Level Boston Center
Mon 12:35:58 PM 43.3225 -71.9406 174° South 152 175 11,000 -347 Descending Boston Center
Mon 12:36:59 PM 43.2725 -71.9325 173° South 164 189 10,400 -492 Descending Boston Center
Mon 12:38:00 PM 43.2369 -71.9100 155° Southeast 159 183 10,000 -198 Descending Boston Center
Mon 12:39:00 PM 43.1950 -71.8761 149° Southeast 159 183 10,000  Level Boston Center
Mon 12:39:59 PM 43.1636 -71.8508 150° Southeast 159 183 10,000  Level Boston Center
Mon 12:41:00 PM 43.1261 -71.8200 149° Southeast 154 177 10,000  Level Boston Center
Mon 12:42:12 PM 43.0842 -71.7864 150° Southeast 148 170 10,000  Level Boston Center
Mon 12:43:10 PM 43.0486 -71.7611 153° Southeast 148 170 10,000 -148 Level Boston Center
Mon 12:44:54 PM 42.9833 -71.6833 139° Southeast 176 203 9,600 -366 Descending KA90
Mon 12:45:54 PM 42.9667 -71.6333 114° Southeast 188 216 9,000 -300 Descending KA90
Mon 12:46:54 PM 42.9333 -71.5667 124° Southeast 176 203 9,000 -200 Level KA90
Mon 12:47:54 PM 42.9167 -71.5167 114° Southeast 168 193 8,600 -550 Descending KA90
Mon 12:48:54 PM 42.8833 -71.4667 132° Southeast 184 212 7,900 -700 Descending KA90
Mon 12:49:54 PM 42.8500 -71.4000 124° Southeast 177 204 7,200 -650 Descending KA90
Mon 12:50:54 PM 42.8167 -71.3500 132° Southeast 178 205 6,600 -550 Descending KA90
Mon 12:51:54 PM 42.8000 -71.3000 114° Southeast 175 201 6,100 -300 Descending KA90
Mon 12:52:54 PM 42.7833 -71.2333 109° East 163 188 6,000 -200 Descending KA90
Mon 12:53:54 PM 42.7500 -71.1833 132° Southeast 158 182 5,700 -350 Descending KA90
Mon 12:54:54 PM 42.7333 -71.1333 114° Southeast 159 183 5,300 -400 Descending KA90
Mon 12:55:54 PM 42.7167 -71.0833 114° Southeast 157 181 4,900 -400 Descending KA90
Mon 12:56:54 PM 42.6833 -71.0333 132° Southeast 151 174 4,500 -450 Descending KA90
Mon 12:57:54 PM 42.6667 -70.9833 114° Southeast 158 182 4,000 -632 Descending KA90
Mon 12:58:48 PM 42.6333 -70.9500 144° Southeast 169 194 3,300 -526 Descending KA90
Mon 12:59:48 PM 42.5833 -70.9333 166° South 167 192 3,000 -150 Descending KA90
Mon 01:00:48 PM 42.5500 -70.9333 180° South 149 171 3,000 -100 Level KA90
Mon 01:01:48 PM 42.5000 -70.9333 180° South 154 177 2,800 -524 Descending KA90
Mon 01:02:54 PM 42.4500 -70.9667 206° Southwest 175 201 1,900 -857 Descending KA90
Mon 01:03:54 PM 42.4000 -70.9833 194° South 162 186 1,000 -900 Descending KA90
Mon 01:05:00 PM 42.3630 -71.0064 194° South  Level Estimated
Mon 01:12:00 PM 42.3630 -71.0064 194° South  Level Estimated
Mon 01:13:00 PM 42.3630 -71.0064 194° South  Level Estimated

Login

Don't have an account? Register now (free) for customized features, flight alerts, and more!